sensor_id;sensor_type;location;lat;lon;timestamp;P1;durP1;ratioP1;P2;durP2;ratioP2
20857;SDS011;10589;53.636;10.012;2023-06-01T03:47:33;10.43;;;5.93;;
20857;SDS011;10589;53.636;10.012;2023-06-01T03:49:59;11.30;;;5.53;;
20857;SDS011;10589;53.636;10.012;2023-06-01T03:52:25;12.83;;;5.90;;
20857;SDS011;10589;53.636;10.012;2023-06-01T03:54:51;13.40;;;5.47;;
20857;SDS011;10589;53.636;10.012;2023-06-01T03:57:17;13.43;;;5.33;;
20857;SDS011;10589;53.636;10.012;2023-06-01T03:59:43;16.63;;;6.50;;
20857;SDS011;10589;53.636;10.012;2023-06-01T04:02:08;13.30;;;6.50;;
20857;SDS011;10589;53.636;10.012;2023-06-01T04:04:35;10.60;;;6.40;;
20857;SDS011;10589;53.636;10.012;2023-06-01T04:07:00;13.93;;;6.23;;
20857;SDS011;10589;53.636;10.012;2023-06-01T04:09:31;12.33;;;6.23;;
20857;SDS011;10589;53.636;10.012;2023-06-01T04:11:56;11.53;;;6.57;;
20857;SDS011;10589;53.636;10.012;2023-06-01T04:14:22;10.93;;;6.20;;
20857;SDS011;10589;53.636;10.012;2023-06-01T04:16:48;12.37;;;6.47;;
20857;SDS011;10589;53.636;10.012;2023-06-01T04:19:13;14.63;;;6.33;;
20857;SDS011;10589;53.636;10.012;2023-06-01T04:21:39;12.93;;;5.73;;
20857;SDS011;10589;53.636;10.012;2023-06-01T04:24:05;13.07;;;5.87;;
20857;SDS011;10589;53.636;10.012;2023-06-01T04:26:30;12.53;;;5.73;;
20857;SDS011;10589;53.636;10.012;2023-06-01T04:28:57;14.63;;;5.80;;
20857;SDS011;10589;53.636;10.012;2023-06-01T04:31:23;16.50;;;5.77;;
20857;SDS011;10589;53.636;10.012;2023-06-01T04:33:49;13.57;;;5.17;;
20857;SDS011;10589;53.636;10.012;2023-06-01T04:36:19;12.63;;;5.37;;
20857;SDS011;10589;53.636;10.012;2023-06-01T04:38:46;13.63;;;5.73;;
20857;SDS011;10589;53.636;10.012;2023-06-01T04:41:16;12.20;;;6.80;;
20857;SDS011;10589;53.636;10.012;2023-06-01T04:43:42;11.13;;;6.33;;
20857;SDS011;10589;53.636;10.012;2023-06-01T04:46:08;12.23;;;6.00;;
20857;SDS011;10589;53.636;10.012;2023-06-01T04:48:33;13.60;;;5.23;;
20857;SDS011;10589;53.636;10.012;2023-06-01T04:50:59;12.97;;;5.50;;
20857;SDS011;10589;53.636;10.012;2023-06-01T04:53:25;14.10;;;5.50;;
20857;SDS011;10589;53.636;10.012;2023-06-01T04:55:52;15.83;;;5.10;;
20857;SDS011;10589;53.636;10.012;2023-06-01T04:58:19;12.63;;;5.13;;
20857;SDS011;10589;53.636;10.012;2023-06-01T05:00:45;15.83;;;5.10;;
20857;SDS011;10589;53.636;10.012;2023-06-01T05:03:11;12.60;;;4.87;;
20857;SDS011;10589;53.636;10.012;2023-06-01T05:05:37;12.03;;;4.60;;
20857;SDS011;10589;53.636;10.012;2023-06-01T05:08:03;10.63;;;4.40;;
20857;SDS011;10589;53.636;10.012;2023-06-01T05:10:29;11.23;;;4.40;;
20857;SDS011;10589;53.636;10.012;2023-06-01T05:12:55;13.90;;;4.33;;
20857;SDS011;10589;53.636;10.012;2023-06-01T05:15:20;12.40;;;4.03;;
20857;SDS011;10589;53.636;10.012;2023-06-01T05:17:47;8.83;;;4.10;;
20857;SDS011;10589;53.636;10.012;2023-06-01T05:20:13;14.50;;;4.50;;
20857;SDS011;10589;53.636;10.012;2023-06-01T05:22:39;7.77;;;3.63;;
20857;SDS011;10589;53.636;10.012;2023-06-01T05:25:08;14.10;;;4.63;;
20857;SDS011;10589;53.636;10.012;2023-06-01T05:27:34;9.47;;;3.73;;
20857;SDS011;10589;53.636;10.012;2023-06-01T05:29:59;11.43;;;3.57;;
20857;SDS011;10589;53.636;10.012;2023-06-01T05:32:25;11.87;;;4.10;;
20857;SDS011;10589;53.636;10.012;2023-06-01T05:34:51;7.27;;;3.73;;
20857;SDS011;10589;53.636;10.012;2023-06-01T05:37:17;10.27;;;4.00;;
20857;SDS011;10589;53.636;10.012;2023-06-01T05:39:43;10.53;;;3.90;;
20857;SDS011;10589;53.636;10.012;2023-06-01T05:42:10;13.57;;;3.90;;
20857;SDS011;10589;53.636;10.012;2023-06-01T05:44:36;16.70;;;3.93;;
20857;SDS011;10589;53.636;10.012;2023-06-01T05:47:01;9.73;;;3.90;;
20857;SDS011;10589;53.636;10.012;2023-06-01T05:49:27;14.70;;;4.23;;
20857;SDS011;10589;53.636;10.012;2023-06-01T05:51:56;11.63;;;3.43;;
20857;SDS011;10589;53.636;10.012;2023-06-01T05:54:21;7.47;;;3.57;;
20857;SDS011;10589;53.636;10.012;2023-06-01T05:56:47;13.43;;;3.63;;
20857;SDS011;10589;53.636;10.012;2023-06-01T05:59:13;9.07;;;2.80;;
20857;SDS011;10589;53.636;10.012;2023-06-01T06:01:38;11.60;;;4.10;;
20857;SDS011;10589;53.636;10.012;2023-06-01T06:04:05;9.73;;;3.90;;
20857;SDS011;10589;53.636;10.012;2023-06-01T06:06:31;11.13;;;3.77;;
20857;SDS011;10589;53.636;10.012;2023-06-01T06:08:56;11.47;;;3.70;;
20857;SDS011;10589;53.636;10.012;2023-06-01T06:11:22;9.27;;;3.30;;
20857;SDS011;10589;53.636;10.012;2023-06-01T06:13:48;10.23;;;3.33;;
20857;SDS011;10589;53.636;10.012;2023-06-01T06:16:16;11.30;;;3.50;;
20857;SDS011;10589;53.636;10.012;2023-06-01T06:18:42;12.90;;;3.40;;
20857;SDS011;10589;53.636;10.012;2023-06-01T06:21:07;11.87;;;3.13;;
20857;SDS011;10589;53.636;10.012;2023-06-01T06:23:33;11.67;;;3.37;;
20857;SDS011;10589;53.636;10.012;2023-06-01T06:25:58;10.00;;;3.10;;
20857;SDS011;10589;53.636;10.012;2023-06-01T06:28:24;9.83;;;3.30;;
20857;SDS011;10589;53.636;10.012;2023-06-01T06:30:51;8.20;;;3.50;;
20857;SDS011;10589;53.636;10.012;2023-06-01T06:33:17;10.60;;;2.80;;
20857;SDS011;10589;53.636;10.012;2023-06-01T06:35:42;8.20;;;3.30;;
20857;SDS011;10589;53.636;10.012;2023-06-01T06:38:08;15.50;;;4.30;;
20857;SDS011;10589;53.636;10.012;2023-06-01T06:40:34;12.47;;;3.37;;
20857;SDS011;10589;53.636;10.012;2023-06-01T06:43:00;7.80;;;3.10;;
20857;SDS011;10589;53.636;10.012;2023-06-01T06:45:26;13.73;;;3.90;;
20857;SDS011;10589;53.636;10.012;2023-06-01T06:47:51;9.23;;;2.77;;
20857;SDS011;10589;53.636;10.012;2023-06-01T06:50:17;7.43;;;2.87;;
20857;SDS011;10589;53.636;10.012;2023-06-01T06:52:43;8.90;;;3.07;;
20857;SDS011;10589;53.636;10.012;2023-06-01T06:55:08;14.40;;;3.30;;
20857;SDS011;10589;53.636;10.012;2023-06-01T06:57:34;7.27;;;2.57;;
20857;SDS011;10589;53.636;10.012;2023-06-01T07:00:00;8.50;;;2.40;;
20857;SDS011;10589;53.636;10.012;2023-06-01T07:02:28;7.13;;;2.70;;
20857;SDS011;10589;53.636;10.012;2023-06-01T07:04:54;10.90;;;2.70;;
20857;SDS011;10589;53.636;10.012;2023-06-01T07:07:19;8.07;;;2.53;;
20857;SDS011;10589;53.636;10.012;2023-06-01T07:09:45;7.70;;;2.17;;
20857;SDS011;10589;53.636;10.012;2023-06-01T07:12:11;9.23;;;2.73;;
20857;SDS011;10589;53.636;10.012;2023-06-01T07:14:37;5.67;;;1.90;;
20857;SDS011;10589;53.636;10.012;2023-06-01T07:17:02;8.17;;;1.60;;
20857;SDS011;10589;53.636;10.012;2023-06-01T07:19:28;8.40;;;1.95;;
20857;SDS011;10589;53.636;10.012;2023-06-01T07:22:01;9.37;;;2.30;;
20857;SDS011;10589;53.636;10.012;2023-06-01T07:24:27;8.80;;;2.50;;
20857;SDS011;10589;53.636;10.012;2023-06-01T07:26:53;12.07;;;2.10;;
20857;SDS011;10589;53.636;10.012;2023-06-01T07:29:19;10.80;;;2.60;;
20857;SDS011;10589;53.636;10.012;2023-06-01T07:31:46;5.28;;;1.73;;
20857;SDS011;10589;53.636;10.012;2023-06-01T07:34:11;8.80;;;1.80;;
20857;SDS011;10589;53.636;10.012;2023-06-01T07:36:37;7.68;;;2.25;;
20857;SDS011;10589;53.636;10.012;2023-06-01T07:39:03;8.80;;;2.35;;
20857;SDS011;10589;53.636;10.012;2023-06-01T07:41:33;9.53;;;2.00;;
20857;SDS011;10589;53.636;10.012;2023-06-01T07:43:59;8.52;;;2.08;;
20857;SDS011;10589;53.636;10.012;2023-06-01T07:46:25;5.90;;;2.23;;
20857;SDS011;10589;53.636;10.012;2023-06-01T07:48:51;6.47;;;2.22;;
20857;SDS011;10589;53.636;10.012;2023-06-01T07:51:17;9.00;;;2.20;;
20857;SDS011;10589;53.636;10.012;2023-06-01T07:53:43;14.02;;;2.60;;
20857;SDS011;10589;53.636;10.012;2023-06-01T07:56:09;7.43;;;2.20;;
20857;SDS011;10589;53.636;10.012;2023-06-01T07:58:35;7.05;;;2.10;;
20857;SDS011;10589;53.636;10.012;2023-06-01T08:01:01;7.10;;;2.17;;
20857;SDS011;10589;53.636;10.012;2023-06-01T08:03:27;5.28;;;2.38;;
20857;SDS011;10589;53.636;10.012;2023-06-01T08:05:53;9.57;;;2.35;;
20857;SDS011;10589;53.636;10.012;2023-06-01T08:08:24;9.52;;;2.65;;
20857;SDS011;10589;53.636;10.012;2023-06-01T08:10:50;10.80;;;3.03;;
20857;SDS011;10589;53.636;10.012;2023-06-01T08:13:17;6.70;;;2.30;;
20857;SDS011;10589;53.636;10.012;2023-06-01T08:15:44;7.40;;;2.40;;
20857;SDS011;10589;53.636;10.012;2023-06-01T08:18:12;5.70;;;2.10;;
20857;SDS011;10589;53.636;10.012;2023-06-01T08:20:39;8.98;;;2.72;;
20857;SDS011;10589;53.636;10.012;2023-06-01T08:23:04;9.35;;;3.05;;
20857;SDS011;10589;53.636;10.012;2023-06-01T08:25:30;6.13;;;2.10;;
20857;SDS011;10589;53.636;10.012;2023-06-01T08:27:56;9.82;;;3.20;;
20857;SDS011;10589;53.636;10.012;2023-06-01T08:30:24;10.48;;;2.97;;
20857;SDS011;10589;53.636;10.012;2023-06-01T08:32:50;8.88;;;2.75;;
20857;SDS011;10589;53.636;10.012;2023-06-01T08:35:16;8.98;;;2.78;;
20857;SDS011;10589;53.636;10.012;2023-06-01T08:37:43;9.85;;;2.60;;
20857;SDS011;10589;53.636;10.012;2023-06-01T08:40:09;7.35;;;2.50;;
20857;SDS011;10589;53.636;10.012;2023-06-01T08:45:11;7.22;;;2.42;;
20857;SDS011;10589;53.636;10.012;2023-06-01T08:47:38;5.95;;;2.33;;
20857;SDS011;10589;53.636;10.012;2023-06-01T08:50:05;11.75;;;2.63;;
20857;SDS011;10589;53.636;10.012;2023-06-01T08:52:33;7.28;;;2.20;;
20857;SDS011;10589;53.636;10.012;2023-06-01T08:55:01;9.98;;;2.38;;
20857;SDS011;10589;53.636;10.012;2023-06-01T08:57:28;10.32;;;2.72;;
20857;SDS011;10589;53.636;10.012;2023-06-01T08:59:54;13.57;;;2.58;;
20857;SDS011;10589;53.636;10.012;2023-06-01T09:02:21;9.95;;;2.72;;
20857;SDS011;10589;53.636;10.012;2023-06-01T09:04:47;7.25;;;2.47;;
20857;SDS011;10589;53.636;10.012;2023-06-01T09:07:13;7.15;;;2.50;;
20857;SDS011;10589;53.636;10.012;2023-06-01T09:09:39;7.00;;;2.13;;
20857;SDS011;10589;53.636;10.012;2023-06-01T09:12:19;9.40;;;2.25;;
20857;SDS011;10589;53.636;10.012;2023-06-01T09:14:49;10.50;;;2.60;;
20857;SDS011;10589;53.636;10.012;2023-06-01T09:17:22;9.48;;;2.80;;
20857;SDS011;10589;53.636;10.012;2023-06-01T09:19:50;15.20;;;2.47;;
20857;SDS011;10589;53.636;10.012;2023-06-01T09:22:20;8.40;;;2.67;;
20857;SDS011;10589;53.636;10.012;2023-06-01T09:24:55;17.35;;;3.17;;
20857;SDS011;10589;53.636;10.012;2023-06-01T09:27:24;10.55;;;2.83;;
20857;SDS011;10589;53.636;10.012;2023-06-01T09:29:55;10.85;;;2.65;;
20857;SDS011;10589;53.636;10.012;2023-06-01T09:32:21;10.52;;;2.90;;
20857;SDS011;10589;53.636;10.012;2023-06-01T09:34:47;12.25;;;2.85;;
20857;SDS011;10589;53.636;10.012;2023-06-01T09:37:14;15.02;;;2.38;;
20857;SDS011;10589;53.636;10.012;2023-06-01T09:39:40;9.32;;;2.60;;
20857;SDS011;10589;53.636;10.012;2023-06-01T09:42:06;14.32;;;2.72;;
20857;SDS011;10589;53.636;10.012;2023-06-01T09:44:33;8.07;;;2.63;;
20857;SDS011;10589;53.636;10.012;2023-06-01T09:47:06;10.13;;;2.92;;
20857;SDS011;10589;53.636;10.012;2023-06-01T09:49:41;11.85;;;2.65;;
20857;SDS011;10589;53.636;10.012;2023-06-01T09:57:04;8.07;;;2.50;;
20857;SDS011;10589;53.636;10.012;2023-06-01T09:59:44;12.35;;;2.55;;
20857;SDS011;10589;53.636;10.012;2023-06-01T10:02:12;13.25;;;2.47;;
20857;SDS011;10589;53.636;10.012;2023-06-01T10:04:41;6.03;;;2.20;;
20857;SDS011;10589;53.636;10.012;2023-06-01T10:07:13;10.20;;;2.53;;
20857;SDS011;10589;53.636;10.012;2023-06-01T10:09:40;7.13;;;2.10;;
20857;SDS011;10589;53.636;10.012;2023-06-01T10:12:08;10.15;;;2.72;;
20857;SDS011;10589;53.636;10.012;2023-06-01T10:14:35;8.57;;;2.65;;
20857;SDS011;10589;53.636;10.012;2023-06-01T10:17:03;7.70;;;2.58;;
20857;SDS011;10589;53.636;10.012;2023-06-01T10:19:29;6.13;;;2.15;;
20857;SDS011;10589;53.636;10.012;2023-06-01T10:21:59;11.85;;;2.78;;
20857;SDS011;10589;53.636;10.012;2023-06-01T10:24:25;10.05;;;2.55;;
20857;SDS011;10589;53.636;10.012;2023-06-01T10:27:10;7.93;;;2.25;;
20857;SDS011;10589;53.636;10.012;2023-06-01T10:29:58;9.07;;;2.50;;
20857;SDS011;10589;53.636;10.012;2023-06-01T10:32:43;8.07;;;2.25;;
20857;SDS011;10589;53.636;10.012;2023-06-01T10:35:12;5.18;;;2.00;;
20857;SDS011;10589;53.636;10.012;2023-06-01T10:40:37;6.97;;;2.70;;
20857;SDS011;10589;53.636;10.012;2023-06-01T10:43:07;12.45;;;2.35;;
20857;SDS011;10589;53.636;10.012;2023-06-01T10:45:53;8.23;;;2.45;;
20857;SDS011;10589;53.636;10.012;2023-06-01T10:48:20;12.20;;;2.70;;
20857;SDS011;10589;53.636;10.012;2023-06-01T10:51:30;10.02;;;2.47;;
20857;SDS011;10589;53.636;10.012;2023-06-01T10:54:39;7.50;;;2.03;;
20857;SDS011;10589;53.636;10.012;2023-06-01T10:57:17;6.43;;;2.45;;
20857;SDS011;10589;53.636;10.012;2023-06-01T11:00:31;10.27;;;2.22;;
20857;SDS011;10589;53.636;10.012;2023-06-01T11:03:01;8.95;;;2.13;;
20857;SDS011;10589;53.636;10.012;2023-06-01T11:08:07;6.22;;;2.10;;
20857;SDS011;10589;53.636;10.012;2023-06-01T11:13:18;9.50;;;2.30;;
20857;SDS011;10589;53.636;10.012;2023-06-01T11:23:51;9.98;;;2.33;;
20857;SDS011;10589;53.636;10.012;2023-06-01T11:26:19;9.27;;;2.60;;
20857;SDS011;10589;53.636;10.012;2023-06-01T11:28:46;8.93;;;2.30;;
20857;SDS011;10589;53.636;10.012;2023-06-01T11:31:16;9.27;;;2.60;;
20857;SDS011;10589;53.636;10.012;2023-06-01T11:33:48;9.00;;;2.13;;
20857;SDS011;10589;53.636;10.012;2023-06-01T11:36:21;10.93;;;2.45;;
20857;SDS011;10589;53.636;10.012;2023-06-01T11:38:50;8.85;;;2.33;;
20857;SDS011;10589;53.636;10.012;2023-06-01T11:41:16;8.82;;;1.92;;
20857;SDS011;10589;53.636;10.012;2023-06-01T11:43:45;5.82;;;1.80;;
20857;SDS011;10589;53.636;10.012;2023-06-01T11:46:22;6.35;;;1.80;;
20857;SDS011;10589;53.636;10.012;2023-06-01T11:49:04;7.72;;;2.10;;
20857;SDS011;10589;53.636;10.012;2023-06-01T11:51:37;7.72;;;2.00;;
20857;SDS011;10589;53.636;10.012;2023-06-01T11:54:07;7.90;;;2.03;;
20857;SDS011;10589;53.636;10.012;2023-06-01T11:56:34;8.15;;;2.00;;
20857;SDS011;10589;53.636;10.012;2023-06-01T11:59:03;10.73;;;2.15;;
20857;SDS011;10589;53.636;10.012;2023-06-01T12:01:37;11.55;;;1.70;;
20857;SDS011;10589;53.636;10.012;2023-06-01T12:04:17;11.02;;;2.25;;
20857;SDS011;10589;53.636;10.012;2023-06-01T12:06:44;7.97;;;2.15;;
20857;SDS011;10589;53.636;10.012;2023-06-01T12:09:11;7.63;;;2.05;;
20857;SDS011;10589;53.636;10.012;2023-06-01T12:11:40;7.50;;;1.98;;
20857;SDS011;10589;53.636;10.012;2023-06-01T12:14:08;8.13;;;2.10;;
20857;SDS011;10589;53.636;10.012;2023-06-01T12:19:30;4.97;;;1.77;;
20857;SDS011;10589;53.636;10.012;2023-06-01T12:21:57;11.80;;;1.75;;
20857;SDS011;10589;53.636;10.012;2023-06-01T12:26:55;9.35;;;1.67;;
20857;SDS011;10589;53.636;10.012;2023-06-01T12:32:04;10.10;;;1.88;;
20857;SDS011;10589;53.636;10.012;2023-06-01T12:34:31;10.45;;;1.90;;
20857;SDS011;10589;53.636;10.012;2023-06-01T12:36:56;9.18;;;1.88;;
20857;SDS011;10589;53.636;10.012;2023-06-01T12:39:32;10.30;;;1.80;;
20857;SDS011;10589;53.636;10.012;2023-06-01T12:42:02;9.50;;;1.55;;
20857;SDS011;10589;53.636;10.012;2023-06-01T12:44:30;8.35;;;1.90;;
20857;SDS011;10589;53.636;10.012;2023-06-01T12:46:57;10.27;;;1.60;;
20857;SDS011;10589;53.636;10.012;2023-06-01T12:49:24;7.05;;;1.88;;
20857;SDS011;10589;53.636;10.012;2023-06-01T12:51:49;13.30;;;1.70;;
20857;SDS011;10589;53.636;10.012;2023-06-01T12:54:15;9.73;;;1.55;;
20857;SDS011;10589;53.636;10.012;2023-06-01T12:56:42;9.60;;;1.60;;
20857;SDS011;10589;53.636;10.012;2023-06-01T12:59:08;8.23;;;1.92;;
20857;SDS011;10589;53.636;10.012;2023-06-01T13:01:34;6.18;;;1.58;;
20857;SDS011;10589;53.636;10.012;2023-06-01T13:04:00;9.23;;;1.70;;
20857;SDS011;10589;53.636;10.012;2023-06-01T13:06:28;7.00;;;1.75;;
20857;SDS011;10589;53.636;10.012;2023-06-01T13:08:56;9.80;;;2.13;;
20857;SDS011;10589;53.636;10.012;2023-06-01T13:11:22;13.35;;;1.80;;
20857;SDS011;10589;53.636;10.012;2023-06-01T13:13:48;10.30;;;1.60;;
20857;SDS011;10589;53.636;10.012;2023-06-01T13:16:14;7.72;;;1.75;;
20857;SDS011;10589;53.636;10.012;2023-06-01T13:18:40;6.85;;;1.48;;
20857;SDS011;10589;53.636;10.012;2023-06-01T13:21:06;7.30;;;1.60;;
20857;SDS011;10589;53.636;10.012;2023-06-01T13:23:32;9.27;;;1.55;;
20857;SDS011;10589;53.636;10.012;2023-06-01T13:25:58;11.35;;;3.60;;
20857;SDS011;10589;53.636;10.012;2023-06-01T13:28:24;13.18;;;2.70;;
20857;SDS011;10589;53.636;10.012;2023-06-01T13:30:49;9.05;;;2.80;;
20857;SDS011;10589;53.636;10.012;2023-06-01T13:33:15;11.77;;;2.15;;
20857;SDS011;10589;53.636;10.012;2023-06-01T13:35:41;11.68;;;2.28;;
20857;SDS011;10589;53.636;10.012;2023-06-01T13:38:06;10.45;;;2.15;;
20857;SDS011;10589;53.636;10.012;2023-06-01T13:40:33;8.88;;;2.03;;
20857;SDS011;10589;53.636;10.012;2023-06-01T13:42:58;13.38;;;2.20;;
20857;SDS011;10589;53.636;10.012;2023-06-01T13:45:24;10.00;;;2.03;;
20857;SDS011;10589;53.636;10.012;2023-06-01T13:47:50;8.65;;;1.95;;
20857;SDS011;10589;53.636;10.012;2023-06-01T13:50:16;13.65;;;2.20;;
20857;SDS011;10589;53.636;10.012;2023-06-01T13:52:42;15.77;;;2.00;;
20857;SDS011;10589;53.636;10.012;2023-06-01T13:55:09;13.52;;;2.10;;
20857;SDS011;10589;53.636;10.012;2023-06-01T13:57:35;10.32;;;1.60;;
20857;SDS011;10589;53.636;10.012;2023-06-01T14:00:02;8.55;;;2.03;;
20857;SDS011;10589;53.636;10.012;2023-06-01T14:02:28;8.50;;;1.98;;
20857;SDS011;10589;53.636;10.012;2023-06-01T14:04:55;7.32;;;1.73;;
20857;SDS011;10589;53.636;10.012;2023-06-01T14:07:20;12.10;;;2.55;;
20857;SDS011;10589;53.636;10.012;2023-06-01T14:09:46;9.88;;;1.83;;
20857;SDS011;10589;53.636;10.012;2023-06-01T14:12:13;7.15;;;1.67;;
20857;SDS011;10589;53.636;10.012;2023-06-01T14:14:39;14.55;;;2.05;;
20857;SDS011;10589;53.636;10.012;2023-06-01T14:17:05;14.75;;;2.22;;
20857;SDS011;10589;53.636;10.012;2023-06-01T14:19:31;13.80;;;1.70;;
20857;SDS011;10589;53.636;10.012;2023-06-01T14:21:57;10.10;;;1.77;;
20857;SDS011;10589;53.636;10.012;2023-06-01T14:24:22;11.55;;;1.75;;
20857;SDS011;10589;53.636;10.012;2023-06-01T14:26:48;12.50;;;1.58;;
20857;SDS011;10589;53.636;10.012;2023-06-01T14:29:14;12.60;;;1.90;;
20857;SDS011;10589;53.636;10.012;2023-06-01T14:31:39;19.33;;;2.83;;
20857;SDS011;10589;53.636;10.012;2023-06-01T14:34:05;10.52;;;1.90;;
20857;SDS011;10589;53.636;10.012;2023-06-01T14:36:31;14.45;;;2.13;;
20857;SDS011;10589;53.636;10.012;2023-06-01T14:38:56;13.73;;;2.10;;
20857;SDS011;10589;53.636;10.012;2023-06-01T14:41:22;10.27;;;2.55;;
20857;SDS011;10589;53.636;10.012;2023-06-01T14:43:48;15.93;;;2.20;;
20857;SDS011;10589;53.636;10.012;2023-06-01T14:46:13;10.88;;;2.58;;
20857;SDS011;10589;53.636;10.012;2023-06-01T14:48:39;13.10;;;2.40;;
20857;SDS011;10589;53.636;10.012;2023-06-01T14:51:05;14.20;;;2.20;;
20857;SDS011;10589;53.636;10.012;2023-06-01T14:53:30;17.80;;;2.33;;
20857;SDS011;10589;53.636;10.012;2023-06-01T14:55:56;15.02;;;2.60;;
20857;SDS011;10589;53.636;10.012;2023-06-01T14:58:21;15.50;;;2.60;;
20857;SDS011;10589;53.636;10.012;2023-06-01T15:00:47;12.23;;;2.33;;
20857;SDS011;10589;53.636;10.012;2023-06-01T15:03:13;11.20;;;2.00;;
20857;SDS011;10589;53.636;10.012;2023-06-01T15:05:38;14.32;;;3.05;;
20857;SDS011;10589;53.636;10.012;2023-06-01T15:08:07;14.13;;;2.30;;
20857;SDS011;10589;53.636;10.012;2023-06-01T15:10:33;12.63;;;2.17;;
20857;SDS011;10589;53.636;10.012;2023-06-01T15:12:58;14.77;;;2.50;;
20857;SDS011;10589;53.636;10.012;2023-06-01T15:15:24;15.88;;;2.42;;
20857;SDS011;10589;53.636;10.012;2023-06-01T15:17:50;13.98;;;2.50;;
20857;SDS011;10589;53.636;10.012;2023-06-01T15:20:15;13.70;;;2.65;;
20857;SDS011;10589;53.636;10.012;2023-06-01T15:22:41;11.52;;;2.22;;
20857;SDS011;10589;53.636;10.012;2023-06-01T15:25:07;15.98;;;2.97;;
20857;SDS011;10589;53.636;10.012;2023-06-01T15:27:32;13.20;;;2.28;;
20857;SDS011;10589;53.636;10.012;2023-06-01T15:29:58;10.93;;;2.67;;
20857;SDS011;10589;53.636;10.012;2023-06-01T15:32:24;15.30;;;3.05;;
20857;SDS011;10589;53.636;10.012;2023-06-01T15:34:50;10.13;;;2.20;;
20857;SDS011;10589;53.636;10.012;2023-06-01T15:37:15;15.10;;;2.20;;
20857;SDS011;10589;53.636;10.012;2023-06-01T15:39:41;12.07;;;2.13;;
20857;SDS011;10589;53.636;10.012;2023-06-01T15:42:08;17.60;;;2.85;;
20857;SDS011;10589;53.636;10.012;2023-06-01T15:44:41;14.13;;;2.50;;
20857;SDS011;10589;53.636;10.012;2023-06-01T15:47:08;16.42;;;2.70;;
20857;SDS011;10589;53.636;10.012;2023-06-01T15:49:34;15.02;;;2.70;;
20857;SDS011;10589;53.636;10.012;2023-06-01T15:52:00;12.68;;;2.58;;
20857;SDS011;10589;53.636;10.012;2023-06-01T15:54:30;12.05;;;2.45;;
20857;SDS011;10589;53.636;10.012;2023-06-01T15:56:59;11.00;;;2.83;;
20857;SDS011;10589;53.636;10.012;2023-06-01T15:59:25;15.55;;;2.78;;
20857;SDS011;10589;53.636;10.012;2023-06-01T16:01:51;10.85;;;2.85;;
20857;SDS011;10589;53.636;10.012;2023-06-01T16:04:18;11.60;;;2.63;;
20857;SDS011;10589;53.636;10.012;2023-06-01T16:06:43;17.25;;;3.15;;
20857;SDS011;10589;53.636;10.012;2023-06-01T16:09:09;12.70;;;2.45;;
20857;SDS011;10589;53.636;10.012;2023-06-01T16:11:35;11.45;;;2.40;;
20857;SDS011;10589;53.636;10.012;2023-06-01T16:14:01;16.27;;;2.95;;
20857;SDS011;10589;53.636;10.012;2023-06-01T16:16:27;10.10;;;2.10;;
20857;SDS011;10589;53.636;10.012;2023-06-01T16:18:52;13.38;;;2.42;;
20857;SDS011;10589;53.636;10.012;2023-06-01T16:21:18;12.48;;;2.35;;
20857;SDS011;10589;53.636;10.012;2023-06-01T16:23:43;13.43;;;2.60;;
20857;SDS011;10589;53.636;10.012;2023-06-01T16:26:09;7.45;;;2.03;;
20857;SDS011;10589;53.636;10.012;2023-06-01T16:28:35;10.85;;;2.20;;
20857;SDS011;10589;53.636;10.012;2023-06-01T16:31:01;8.93;;;2.30;;
20857;SDS011;10589;53.636;10.012;2023-06-01T16:33:27;15.20;;;2.70;;
20857;SDS011;10589;53.636;10.012;2023-06-01T16:35:53;15.43;;;2.35;;
20857;SDS011;10589;53.636;10.012;2023-06-01T16:38:19;17.20;;;2.72;;
20857;SDS011;10589;53.636;10.012;2023-06-01T16:40:44;17.42;;;3.28;;
20857;SDS011;10589;53.636;10.012;2023-06-01T16:43:10;12.10;;;3.10;;
20857;SDS011;10589;53.636;10.012;2023-06-01T16:45:38;10.20;;;2.83;;
20857;SDS011;10589;53.636;10.012;2023-06-01T16:48:04;14.73;;;2.15;;
20857;SDS011;10589;53.636;10.012;2023-06-01T16:50:31;13.30;;;2.60;;
20857;SDS011;10589;53.636;10.012;2023-06-01T16:52:59;18.63;;;2.00;;
20857;SDS011;10589;53.636;10.012;2023-06-01T16:55:24;12.43;;;2.53;;
20857;SDS011;10589;53.636;10.012;2023-06-01T16:57:51;13.55;;;2.47;;
20857;SDS011;10589;53.636;10.012;2023-06-01T17:00:20;16.02;;;3.38;;
20857;SDS011;10589;53.636;10.012;2023-06-01T17:02:46;15.18;;;3.33;;
20857;SDS011;10589;53.636;10.012;2023-06-01T17:05:12;14.43;;;3.20;;
20857;SDS011;10589;53.636;10.012;2023-06-01T17:07:37;11.68;;;2.60;;
20857;SDS011;10589;53.636;10.012;2023-06-01T17:10:03;14.88;;;2.80;;
20857;SDS011;10589;53.636;10.012;2023-06-01T17:12:29;12.38;;;2.70;;
20857;SDS011;10589;53.636;10.012;2023-06-01T17:14:55;12.07;;;2.83;;
20857;SDS011;10589;53.636;10.012;2023-06-01T17:17:29;14.10;;;2.88;;
20857;SDS011;10589;53.636;10.012;2023-06-01T17:19:54;14.13;;;3.20;;
20857;SDS011;10589;53.636;10.012;2023-06-01T17:22:20;13.05;;;2.63;;
20857;SDS011;10589;53.636;10.012;2023-06-01T17:24:46;11.15;;;2.17;;
20857;SDS011;10589;53.636;10.012;2023-06-01T17:27:11;9.82;;;2.35;;
20857;SDS011;10589;53.636;10.012;2023-06-01T17:29:37;9.05;;;2.70;;
20857;SDS011;10589;53.636;10.012;2023-06-01T17:32:04;15.95;;;3.13;;
20857;SDS011;10589;53.636;10.012;2023-06-01T17:34:34;13.40;;;3.00;;
20857;SDS011;10589;53.636;10.012;2023-06-01T17:36:59;13.65;;;3.20;;
20857;SDS011;10589;53.636;10.012;2023-06-01T17:39:25;14.68;;;2.78;;
20857;SDS011;10589;53.636;10.012;2023-06-01T17:41:51;19.50;;;3.53;;
20857;SDS011;10589;53.636;10.012;2023-06-01T17:44:17;18.35;;;3.00;;
20857;SDS011;10589;53.636;10.012;2023-06-01T17:46:45;11.82;;;2.88;;
20857;SDS011;10589;53.636;10.012;2023-06-01T17:49:10;15.40;;;3.22;;
20857;SDS011;10589;53.636;10.012;2023-06-01T17:51:37;13.05;;;2.95;;
20857;SDS011;10589;53.636;10.012;2023-06-01T17:54:05;15.65;;;2.40;;
20857;SDS011;10589;53.636;10.012;2023-06-01T17:56:30;14.73;;;3.10;;
20857;SDS011;10589;53.636;10.012;2023-06-01T17:58:56;19.73;;;3.22;;
20857;SDS011;10589;53.636;10.012;2023-06-01T18:01:22;10.85;;;3.00;;
20857;SDS011;10589;53.636;10.012;2023-06-01T18:03:49;19.35;;;3.10;;
20857;SDS011;10589;53.636;10.012;2023-06-01T18:06:16;14.45;;;2.53;;
20857;SDS011;10589;53.636;10.012;2023-06-01T18:08:42;14.38;;;2.67;;
20857;SDS011;10589;53.636;10.012;2023-06-01T18:11:08;7.97;;;2.50;;
20857;SDS011;10589;53.636;10.012;2023-06-01T18:13:34;12.90;;;3.10;;
20857;SDS011;10589;53.636;10.012;2023-06-01T18:15:59;15.10;;;2.80;;
20857;SDS011;10589;53.636;10.012;2023-06-01T18:18:25;11.73;;;2.63;;
20857;SDS011;10589;53.636;10.012;2023-06-01T18:23:22;14.10;;;2.70;;
20857;SDS011;10589;53.636;10.012;2023-06-01T18:25:48;16.27;;;2.87;;
20857;SDS011;10589;53.636;10.012;2023-06-01T18:28:14;13.37;;;2.70;;
20857;SDS011;10589;53.636;10.012;2023-06-01T18:30:40;10.50;;;2.57;;
20857;SDS011;10589;53.636;10.012;2023-06-01T18:33:05;11.40;;;2.40;;
20857;SDS011;10589;53.636;10.012;2023-06-01T18:35:31;17.17;;;3.33;;
20857;SDS011;10589;53.636;10.012;2023-06-01T18:37:56;20.03;;;3.17;;
20857;SDS011;10589;53.636;10.012;2023-06-01T18:40:22;13.10;;;3.13;;
20857;SDS011;10589;53.636;10.012;2023-06-01T18:42:48;13.33;;;2.87;;
20857;SDS011;10589;53.636;10.012;2023-06-01T18:45:14;13.10;;;3.07;;
20857;SDS011;10589;53.636;10.012;2023-06-01T18:47:40;14.27;;;3.70;;